Latest Coastal Weather Observations for Wynyard

IDV60701

Issued at 1:41 am EST Monday 26 June 2017 (issued every 10 minutes, with the page automatically refreshed every 10 minutes)

About coastal observations | Map of coastal stations | Coastal observations for VIC | Marine services | Other Formats
Station Details ID: 091107 Name: WYNYARD AIRPORT Lat: -41.00 Lon: 145.73 Height: 12.0 m
Data from the previous 72 hours. | See also: Recent months at Wynyard
Date/Time
EST
Temp
°C
Wind Pressure Rain since
9am
mm
Weather Cloud Vis
km
Sea
Height
m
Swell
Dir  Spd
kts
Gust
kts
hPa Trend Height
m
Period
s
Dir
26/01:30am 6.0 WSW 9 12 1014.6 - 1.8 - - 10 - - - -
26/01:00am 6.6 WSW 11 16 1014.4 - 1.8 - - 10 - - - -
26/12:30am 6.2 WSW 9 13 1014.1 - 1.8 - - 10 - - - -
26/12:00am 5.0 WNW 6 7 1014.0 - 1.8 - - 10 - - - -
 
Date/Time
EST
Temp
°C
Wind Pressure Rain since
9am
mm
Weather Cloud Vis
km
Sea
Height
m
Swell
Dir  Spd
kts
Gust
kts
hPa Trend Height
m
Period
s
Dir
25/11:30pm 5.7 W 7 9 1013.8 - 1.8 - - 10 - - - -
25/11:00pm 5.8 W 8 10 1013.4 - 1.8 - - 10 - - - -
25/10:30pm 5.8 W 10 12 1013.0 - 1.8 - - 10 - - - -
25/10:00pm 6.0 WNW 7 9 1012.6 - 1.8 - - 10 - - - -
25/09:30pm 6.7 WNW 8 10 1012.4 - 1.8 - Partly cloudy 10 - - - -
25/09:00pm 7.1 W 7 8 1011.6 - 1.8 - Partly cloudy 10 - - - -
25/08:30pm 7.4 WNW 7 9 1011.2 - 1.8 - - 10 - - - -
25/08:00pm 7.8 W 9 16 1011.0 - 1.8 - Partly cloudy 10 - - - -
25/07:30pm 8.1 W 8 11 1010.5 - 1.8 - Partly cloudy 10 - - - -
25/07:00pm 7.9 WNW 10 13 1009.9 - 1.8 - - 10 - - - -
25/06:30pm 8.3 NW 10 13 1009.2 - 1.8 - - 10 - - - -
25/06:00pm 8.2 NW 8 11 1008.7 - 1.8 - Partly cloudy 10 - - - -
25/05:30pm 8.7 W 9 11 1008.4 - 1.8 - Partly cloudy 10 - - - -
25/05:00pm 8.6 WNW 9 11 1007.9 - 1.8 - - 10 - - - -
25/04:30pm 9.7 W 15 23 1007.5 - 1.8 - Partly cloudy 10 - - - -
25/04:00pm 10.2 W 15 20 1007.0 - 1.8 - Partly cloudy 10 - - - -
25/03:30pm 11.1 W 15 21 1006.2 - 1.8 - - 10 - - - -
25/03:00pm 11.4 WSW 13 19 1006.2 - 1.8 - Partly cloudy 10 - - - -
25/02:31pm 11.4 W 17 29 1006.1 - 1.8 - Partly cloudy 10 - - - -
25/02:30pm 11.4 W 17 25 1006.0 - 1.8 - Partly cloudy 10 - - - -
25/02:00pm 11.3 W 13 16 1005.9 - 1.8 - Partly cloudy 10 - - - -
25/01:30pm 11.2 WNW 15 19 1006.0 - 1.8 - Partly cloudy 10 - - - -
25/01:00pm 10.9 W 13 18 1006.5 - 1.8 - Partly cloudy 10 - - - -
25/12:59pm 10.9 W 14 19 1006.5 - 1.8 - Partly cloudy 10 - - - -
25/12:45pm 10.6 W 17 23 1006.5 - 1.8 - Partly cloudy 5 - - - -
25/12:35pm 12.2 WNW 15 24 1006.4 - 0.8 - Partly cloudy 10 - - - -
25/12:30pm 12.0 WNW 13 21 1006.4 - 0.8 - Partly cloudy 8 - - - -
25/12:24pm 11.5 WNW 14 20 1006.6 - 0.8 - Partly cloudy 5 - - - -
25/12:00pm 11.7 WNW 12 17 1007.0 - 0.8 - Cloudy 10 - - - -
25/11:30am 10.3 WNW 8 12 1007.6 - 0.8 - Partly cloudy 10 - - - -
25/11:00am 9.9 WNW 9 13 1008.3 - 0.8 - Partly cloudy 10 - - - -
25/10:30am 9.9 W 9 12 1008.6 - 0.2 - Partly cloudy 10 - - - -
25/10:00am 9.8 WNW 12 17 1009.0 - 0.2 - Partly cloudy 10 - - - -
25/09:30am 9.5 WNW 11 15 1008.8 - 0.2 - Partly cloudy 10 - - - -
25/09:00am 9.0 NW 9 12 1008.8 - 0.8 Recent precip. Cloudy 10 - - - -
25/08:30am 8.7 WNW 11 13 1009.1 - 0.4 - Partly cloudy 10 - - - -
25/08:00am 7.9 WNW 9 11 1009.1 - 0.2 - Partly cloudy 10 - - - -
25/07:30am 7.9 WNW 10 13 1009.2 - 0.2 - Partly cloudy 10 - - - -
25/07:24am 7.7 WNW 9 12 1009.1 - 0.2 - Partly cloudy 10 - - - -
25/07:07am 8.0 WNW 9 12 1009.3 - 0.2 - Partly cloudy 5 - - - -
25/07:00am 7.7 WNW 7 10 1009.5 - 0.2 - Partly cloudy 10 - - - -
25/06:35am 7.6 W 9 11 1009.3 - 0.0 - Partly cloudy 10 - - - -
25/06:30am 7.6 W 9 11 1009.2 - 0.0 - Partly cloudy 10 - - - -
25/06:18am 7.7 WNW 9 11 1009.3 - 0.0 - Partly cloudy 5 - - - -
25/06:00am 7.1 WNW 7 9 1009.3 - 0.0 - Cloudy 10 - - - -
25/05:30am 6.5 W 5 7 1009.3 - 0.0 - Partly cloudy 10 - - - -
25/05:00am 6.9 W 6 7 1009.5 - 0.0 - Partly cloudy 10 - - - -
25/04:30am 7.1 WNW 6 9 1009.6 - 0.0 - Partly cloudy 10 - - - -
25/04:00am 5.6 CALM 0 0 1010.2 - 0.0 - Partly cloudy 10 - - - -
25/03:58am 5.2 CALM 0 0 1010.2 - 0.0 - Partly cloudy 10 - - - -
25/03:30am 4.5 CALM 0 0 1010.6 - 0.0 - Partly cloudy 6 - - - -
25/03:26am 4.4 CALM 0 0 1010.6 - 0.0 - Partly cloudy 5 - - - -
25/03:00am 4.7 CALM 0 0 1010.8 - 0.0 - Cloudy 10 - - - -
25/02:30am 4.2 SW 3 5 1010.9 - 0.0 - Partly cloudy 7 - - - -
25/02:00am 3.4 W 4 5 1011.2 - 0.0 - Partly cloudy 10 - - - -
25/01:30am 3.4 WNW 4 5 1011.3 - 0.0 - Partly cloudy 10 - - - -
25/01:00am 3.3 WSW 5 7 1011.5 - 0.0 - Partly cloudy 10 - - - -
25/12:30am 2.7 WSW 4 4 1011.8 - 0.0 - Partly cloudy 10 - - - -
25/12:00am 2.3 CALM 0 3 1012.0 - 0.0 - Cloudy 10 - - - -
 
Date/Time
EST
Temp
°C
Wind Pressure Rain since
9am
mm
Weather Cloud Vis
km
Sea
Height
m
Swell
Dir  Spd
kts
Gust
kts
hPa Trend Height
m
Period
s
Dir
24/11:40pm 2.4 SW 4 5 1012.3 - 0.0 - Partly cloudy 9 - - - -
24/11:30pm 1.7 SW 4 5 1012.5 - 0.0 - Partly cloudy 5 - - - -
24/11:09pm 1.8 W 2 5 1012.6 - 0.0 - - 5 - - - -
24/11:03pm 2.6 CALM 0 0 1012.6 - 0.0 - - 6 - - - -
24/11:00pm 2.8 CALM 0 0 1012.6 - 0.0 - - 8 - - - -
24/10:41pm 2.9 NNW 3 4 1012.7 - 0.0 - Partly cloudy 5 - - - -
24/10:30pm 2.6 S 2 5 1012.7 - 0.0 - Partly cloudy 10 - - - -
24/10:00pm 1.8 WSW 3 5 1013.2 - 0.0 - Partly cloudy 10 - - - -
24/09:30pm 2.7 SW 4 5 1013.3 - 0.0 - Partly cloudy 10 - - - -
24/09:00pm 2.7 WSW 3 5 1013.5 - 0.0 - Mostly cloudy 10 - - - -
24/08:30pm 2.6 SSW 3 5 1013.5 - 0.0 - - 10 - - - -
24/08:00pm 2.9 SSW 4 5 1013.6 - 0.0 - - 10 - - - -
24/07:30pm 3.2 SW 5 5 1013.6 - 0.0 - - 10 - - - -
24/07:00pm 2.9 SSW 3 4 1013.5 - 0.0 - Partly cloudy 10 - - - -
24/06:30pm 2.4 SW 1 3 1013.6 - 0.0 - - 10 - - - -
24/06:00pm 4.4 CALM 0 0 1013.4 - 0.0 - Mostly clear 10 - - - -
24/05:30pm 5.9 WSW 3 4 1013.4 - 0.0 - - 10 - - - -
24/05:00pm 6.4 W 4 4 1013.4 - 0.0 - - 10 - - - -
24/04:30pm 7.7 SSW 3 4 1013.3 - 0.0 - Partly cloudy 10 - - - -
24/04:00pm 8.3 WSW 8 12 1013.2 - 0.0 - Partly cloudy 10 - - - -
24/03:30pm 10.1 W 12 19 1013.2 - 0.0 - Partly cloudy 10 - - - -
24/03:00pm 10.4 W 9 14 1013.0 - 0.0 - Cloudy 10 - - - -
24/02:30pm 9.5 W 12 16 1013.0 - 0.0 - Partly cloudy 10 - - - -
24/02:00pm 10.1 W 11 17 1013.0 - 0.0 - - 10 - - - -
24/01:30pm 9.6 W 7 8 1013.1 - 0.0 - Partly cloudy 10 - - - -
24/01:00pm 9.4 W 12 16 1013.4 - 0.0 - Partly cloudy 10 - - - -
24/12:30pm 10.4 WSW 10 14 1013.6 - 0.0 - - 10 - - - -
24/12:00pm 9.6 WSW 11 16 1013.9 - 0.0 - Partly cloudy 10 - - - -
24/11:30am 9.0 WSW 10 14 1014.4 - 0.0 - Partly cloudy 10 - - - -
24/11:00am 8.7 W 9 12 1014.5 - 0.0 - Partly cloudy 10 - - - -
24/10:30am 8.2 NW 1 3 1014.9 - 0.0 - Partly cloudy 10 - - - -
24/10:00am 6.1 W 4 5 1014.8 - 0.0 - Partly cloudy 10 - - - -
24/09:30am 4.7 SW 5 6 1014.5 - 0.0 - - 10 - - - -
24/09:00am 2.9 WNW 6 7 1014.4 - 1.6 - - 10 - - - -
24/08:30am 0.9 W 6 6 1014.2 - 1.6 - - 10 - - - -
24/08:00am 0.0 W 8 9 1014.0 - 1.6 - - 10 - - - -
24/07:30am 0.7 W 7 7 1013.7 - 1.6 - Partly cloudy 10 - - - -
24/07:00am -0.3 W 7 8 1013.5 - 1.6 - Partly cloudy 10 - - - -
24/06:30am 0.2 W 5 6 1012.9 - 1.6 - Partly cloudy 10 - - - -
24/06:00am 1.3 W 8 9 1012.8 - 1.6 - Partly cloudy 10 - - - -
24/05:30am 2.5 W 10 15 1012.5 - 1.6 - Partly cloudy 10 - - - -
24/05:00am 0.0 WSW 7 7 1012.4 - 1.6 - - 10 - - - -
24/04:30am 0.2 W 7 8 1012.4 - 1.6 - Partly cloudy 10 - - - -
24/04:00am 0.1 W 7 8 1012.3 - 1.6 - Partly cloudy 10 - - - -
24/03:30am 0.7 SW 3 4 1012.2 - 1.6 - - 10 - - - -
24/03:00am 0.0 WNW 5 6 1012.0 - 1.6 - - 10 - - - -
24/02:30am 1.0 W 5 6 1011.8 - 1.6 - - 10 - - - -
24/02:00am 2.0 WNW 5 6 1011.4 - 1.6 - - 10 - - - -
24/01:30am 2.8 WNW 4 5 1011.1 - 1.6 - - 10 - - - -
24/01:00am 2.9 WNW 8 9 1010.9 - 1.6 - - 10 - - - -
24/12:30am 3.0 W 8 9 1010.7 - 1.6 - - 10 - - - -
24/12:00am 3.6 W 9 10 1010.5 - 1.6 - - 10 - - - -
 
Date/Time
EST
Temp
°C
Wind Pressure Rain since
9am
mm
Weather Cloud Vis
km
Sea
Height
m
Swell
Dir  Spd
kts
Gust
kts
hPa Trend Height
m
Period
s
Dir
23/11:30pm 4.5 W 10 13 1010.3 - 1.6 - - 10 - - - -
23/11:00pm 4.7 WSW 10 13 1010.2 - 1.6 - Partly cloudy 10 - - - -
23/10:30pm 5.7 W 18 23 1009.6 - 1.6 - Partly cloudy 10 - - - -
23/10:00pm 5.5 W 12 15 1009.4 - 1.6 - - 10 - - - -
23/09:30pm 6.0 WSW 13 21 1009.2 - 1.6 - - 10 - - - -
23/09:00pm 5.4 W 9 13 1008.7 - 1.6 - - 10 - - - -
23/08:30pm 6.2 W 11 17 1008.5 - 1.6 - Partly cloudy 10 - - - -
23/08:00pm 6.4 W 11 14 1007.7 - 1.6 - Partly cloudy 10 - - - -
23/07:30pm 7.4 WSW 15 23 1007.6 - 1.6 - Partly cloudy 10 - - - -
23/07:00pm 7.9 WSW 15 25 1007.2 - 1.6 - Partly cloudy 10 - - - -
23/06:48pm 8.2 WSW 18 28 1007.0 - 1.6 - Partly cloudy 10 - - - -
23/06:30pm 8.6 WSW 16 23 1006.5 - 1.6 - Partly cloudy 10 - - - -
23/06:19pm 9.2 WSW 17 32 1006.2 - 1.6 - Partly cloudy 10 - - - -
23/06:00pm 9.5 WSW 12 18 1005.5 - 1.6 - Partly cloudy 10 - - - -
23/05:30pm 9.7 W 14 19 1004.7 - 1.6 - Partly cloudy 10 - - - -
23/05:00pm 10.3 W 14 19 1004.7 - 1.6 - Partly cloudy 10 - - - -
23/04:30pm 10.5 W 12 16 1004.7 - 1.6 - Partly cloudy 10 - - - -
23/04:00pm 10.9 WSW 13 18 1005.1 - 1.4 - Partly cloudy 10 - - - -
23/03:44pm 11.0 W 15 20 1005.1 - 1.4 - Partly cloudy 10 - - - -
23/03:42pm 11.0 W 16 26 1005.2 - 1.2 - Partly cloudy 10 - - - -
23/03:30pm 11.4 W 20 27 1005.2 - 1.0 - Partly cloudy 4 - - - -
23/03:26pm 11.9 WNW 19 27 1005.1 - 0.8 - Partly cloudy 5 - - - -
23/03:25pm 12.2 WNW 18 27 1005.1 - 0.6 - Partly cloudy 5 - - - -
23/03:00pm 13.5 WNW 15 20 1004.8 - 0.2 - Partly cloudy 10 - - - -
23/02:30pm 13.5 WNW 17 25 1005.3 - 0.2 - Partly cloudy 10 - - - -
23/02:00pm 12.7 WNW 13 17 1005.9 - 0.2 - Partly cloudy 10 - - - -
23/01:30pm 12.9 NW 15 21 1006.3 - 0.2 - Partly cloudy 8 - - - -
23/01:00pm 13.9 NW 16 21 1007.3 - 0.0 - Partly cloudy 10 - - - -
23/12:30pm 13.3 NW 16 21 1007.9 - 0.0 - Partly cloudy 10 - - - -
23/12:00pm 12.7 NW 18 24 1008.6 - 0.0 - Cloudy 10 - - - -
23/11:30am 13.4 NW 18 28 1009.1 - 0.0 - Partly cloudy 10 - - - -
23/11:00am 14.1 NW 21 31 1009.6 - 0.0 - Partly cloudy 10 - - - -
23/10:42am 13.5 NW 19 29 1010.1 - 0.0 - Partly cloudy 10 - - - -
23/10:30am 13.6 NW 19 27 1010.4 - 0.0 - Partly cloudy 10 - - - -
23/10:00am 12.9 WNW 16 22 1011.0 - 0.0 - Partly cloudy 10 - - - -
23/09:34am 13.0 NW 17 28 1011.2 - 0.0 - Partly cloudy 10 - - - -
23/09:30am 13.1 WNW 16 24 1011.4 - 0.0 - Partly cloudy 10 - - - -
23/09:00am 12.6 WNW 12 18 1011.8 - 3.0 - Cloudy 10 - - - -
23/08:30am 12.3 WNW 10 17 1012.0 - 3.0 - Partly cloudy 10 - - - -
23/08:12am 12.0 WNW 9 12 1012.2 - 3.0 - Partly cloudy 10 - - - -
23/08:00am 11.9 WNW 10 14 1012.3 - 3.0 - Partly cloudy 10 - - - -
23/07:50am 11.8 WNW 11 15 1012.3 - 3.0 - Partly cloudy 10 - - - -
23/07:30am 11.7 NW 12 17 1012.5 - 3.0 - Partly cloudy 10 - - - -
23/07:00am 11.6 WNW 8 13 1012.7 - 3.0 - Partly cloudy 10 - - - -
23/06:30am 11.3 WNW 7 9 1012.8 - 3.0 - Partly cloudy 10 - - - -
23/06:00am 11.2 WNW 6 8 1013.1 - 3.0 - Cloudy 10 - - - -
23/05:30am 11.4 WNW 8 9 1013.1 - 3.0 - Partly cloudy 10 - - - -
23/05:00am 11.4 WNW 10 13 1013.3 - 3.0 - Partly cloudy 10 - - - -
23/04:30am 12.1 WNW 12 16 1013.5 - 3.0 - Partly cloudy 10 - - - -
23/04:00am 12.6 WNW 14 20 1013.8 - 3.0 - Partly cloudy 10 - - - -
23/03:35am 12.8 NW 15 27 1014.0 - 3.0 - Partly cloudy 10 - - - -
23/03:30am 12.8 NW 15 23 1014.1 - 3.0 - Partly cloudy 10 - - - -
23/03:12am 12.9 NW 16 26 1014.3 - 3.0 - Partly cloudy 10 - - - -
23/03:09am 12.9 NW 16 26 1014.3 - 3.0 - Partly cloudy 10 - - - -
23/03:00am 12.9 NW 14 24 1014.4 - 3.0 - Cloudy 10 - - - -
23/02:43am 12.8 NW 13 17 1014.6 - 3.0 - Partly cloudy 10 - - - -
23/02:30am 12.6 NW 13 19 1014.8 - 3.0 - Partly cloudy 10 - - - -
23/02:00am 9.5 SSW 2 6 1015.3 - 3.0 - Partly cloudy 10 - - - -
23/01:45am 8.5 CALM 0 4 1015.5 - 2.8 - Partly cloudy 6 - - - -

Other Formats:

Comma delimited format used in spreadsheet applications
http://www.bom.gov.au/fwo/IDV60701/IDV60701.95957.axf

JavaScript Object Notation format (JSON) in row-major order
http://www.bom.gov.au/fwo/IDV60701/IDV60701.95957.json